Time;durP1;ratioP1;P1;durP2;ratioP2;P2;SDS_P1;SDS_P2;PMS_P1;PMS_P2;Temp;Humidity;BMP_temperature;BMP_pressure;BME280_temperature;BME280_humidity;BME280_pressure;Samples;Min_cycle;Max_cycle;Signal;HPM_P1;HPM_P2
2022/07/22 00:02:14;;;;;;;6.80;5.15;;;19.80;99.90;;;;;;5050717;28;20181;-75
2022/07/22 00:04:39;;;;;;;5.65;5.05;;;19.70;99.90;;;;;;5051004;28;20193;-76
2022/07/22 00:07:05;;;;;;;7.68;4.65;;;19.80;99.90;;;;;;5050293;28;20205;-76
2022/07/22 00:09:30;;;;;;;5.45;4.65;;;19.80;99.90;;;;;;5050339;28;20306;-75
2022/07/22 00:11:56;;;;;;;8.13;5.40;;;19.70;99.90;;;;;;5050941;28;20184;-76
2022/07/22 00:14:21;;;;;;;6.30;5.13;;;19.60;99.90;;;;;;5050367;28;20185;-74
2022/07/22 00:16:47;;;;;;;6.40;5.00;;;19.60;99.90;;;;;;5050855;28;20177;-74
2022/07/22 00:19:13;;;;;;;6.97;5.38;;;19.60;99.90;;;;;;5050369;28;20201;-74
2022/07/22 00:21:38;;;;;;;7.88;5.25;;;19.50;99.90;;;;;;5050732;28;20259;-74
2022/07/22 00:24:04;;;;;;;6.82;4.82;;;19.40;99.90;;;;;;5052785;28;20182;-74
2022/07/22 00:26:30;;;;;;;8.85;5.68;;;19.40;99.90;;;;;;5054628;28;20186;-74
2022/07/22 00:28:55;;;;;;;7.55;5.15;;;19.40;99.90;;;;;;5053852;28;20212;-75
2022/07/22 00:31:21;;;;;;;7.53;5.53;;;19.40;99.90;;;;;;5054696;28;20177;-75
2022/07/22 00:33:46;;;;;;;9.18;5.53;;;19.30;99.90;;;;;;5054549;28;20648;-74
2022/07/22 00:36:12;;;;;;;6.30;5.65;;;19.30;99.90;;;;;;5052896;28;20200;-74
2022/07/22 00:38:38;;;;;;;6.88;5.65;;;19.30;99.90;;;;;;5054301;28;20181;-75
2022/07/22 00:41:04;;;;;;;5.63;5.03;;;19.30;99.90;;;;;;5053766;28;20265;-75
2022/07/22 00:44:02;;;;;;;7.45;5.40;;;19.30;99.90;;;;;;5054488;28;20831;-75
2022/07/22 00:46:30;;;;;;;6.50;5.70;;;19.30;99.90;;;;;;5054399;28;20177;-75
2022/07/22 00:48:56;;;;;;;6.55;5.15;;;19.30;99.90;;;;;;5053851;28;20217;-74
2022/07/22 00:51:24;;;;;;;8.18;5.43;;;19.20;99.90;;;;;;5041063;28;20744;-74
2022/07/22 00:53:49;;;;;;;6.47;5.00;;;19.20;99.90;;;;;;5051511;28;20192;-74
2022/07/22 00:56:16;;;;;;;8.98;5.80;;;19.10;99.90;;;;;;5053477;28;20169;-74
2022/07/22 00:58:42;;;;;;;8.23;5.75;;;19.10;99.90;;;;;;5052730;28;20205;-74
2022/07/22 01:01:09;;;;;;;7.50;5.32;;;19.10;99.90;;;;;;5052973;28;20223;-73
2022/07/22 01:03:35;;;;;;;9.38;5.35;;;19.10;99.90;;;;;;5053594;28;20567;-73
2022/07/22 01:06:01;;;;;;;7.75;5.75;;;19.00;99.90;;;;;;5053725;28;20205;-74
2022/07/22 01:08:27;;;;;;;7.75;5.97;;;19.00;99.90;;;;;;5053366;28;20597;-74
2022/07/22 01:10:52;;;;;;;6.22;5.30;;;18.90;99.90;;;;;;5053594;28;20177;-74
2022/07/22 01:13:18;;;;;;;8.68;5.25;;;18.90;99.90;;;;;;5053762;28;20213;-73
2022/07/22 01:15:43;;;;;;;8.43;5.65;;;18.90;99.90;;;;;;5052366;28;20682;-74
2022/07/22 01:18:09;;;;;;;9.45;5.60;;;18.80;99.90;;;;;;5054059;28;20178;-74
2022/07/22 01:20:35;;;;;;;7.13;5.82;;;18.80;99.90;;;;;;5053277;28;20188;-74
2022/07/22 01:23:01;;;;;;;7.15;5.97;;;18.80;99.90;;;;;;5052110;28;20221;-74
2022/07/22 01:25:27;;;;;;;6.68;5.65;;;18.70;99.90;;;;;;5049311;28;20173;-74
2022/07/22 01:27:53;;;;;;;7.40;5.50;;;18.70;99.90;;;;;;5050067;28;20188;-73
2022/07/22 01:30:19;;;;;;;8.27;6.45;;;18.70;99.90;;;;;;5053236;28;20200;-73
2022/07/22 01:32:44;;;;;;;8.25;5.78;;;18.70;99.90;;;;;;5053034;28;20185;-74
2022/07/22 01:35:10;;;;;;;8.27;5.82;;;18.60;99.90;;;;;;5052684;28;20729;-73
2022/07/22 01:37:36;;;;;;;6.47;5.50;;;18.60;99.90;;;;;;5052600;28;20264;-73
2022/07/22 01:40:02;;;;;;;6.72;5.70;;;18.50;99.90;;;;;;5052785;28;20200;-73
2022/07/22 01:42:27;;;;;;;6.57;5.93;;;18.50;99.90;;;;;;5053168;28;20284;-73
2022/07/22 01:44:53;;;;;;;8.15;6.38;;;18.50;99.90;;;;;;5053226;28;20183;-73
2022/07/22 01:47:18;;;;;;;6.57;5.80;;;18.50;99.90;;;;;;5051873;28;20209;-73
2022/07/22 01:49:44;;;;;;;10.07;6.00;;;18.50;99.90;;;;;;5053010;28;20300;-72
2022/07/22 01:52:09;;;;;;;8.35;6.18;;;18.50;99.90;;;;;;5052914;28;20216;-72
2022/07/22 01:54:35;;;;;;;8.48;6.13;;;18.50;99.90;;;;;;5053019;28;20181;-73
2022/07/22 01:57:01;;;;;;;8.82;6.35;;;18.40;99.90;;;;;;5052541;28;20637;-75
2022/07/22 01:59:27;;;;;;;8.13;6.28;;;18.40;99.90;;;;;;5051224;28;20174;-75
2022/07/22 02:01:52;;;;;;;8.75;5.93;;;18.40;99.90;;;;;;5056615;28;20200;-75
2022/07/22 02:04:18;;;;;;;7.85;6.15;;;18.40;99.90;;;;;;5053087;28;20197;-75
2022/07/22 02:06:43;;;;;;;6.47;5.78;;;18.40;99.90;;;;;;5053035;28;20189;-74
2022/07/22 02:09:09;;;;;;;8.32;5.97;;;18.40;99.90;;;;;;5053086;28;20217;-73
2022/07/22 02:11:34;;;;;;;7.10;5.70;;;18.40;99.90;;;;;;5052834;28;20565;-74
2022/07/22 02:14:00;;;;;;;6.80;5.50;;;18.50;99.90;;;;;;5052482;28;20181;-74
2022/07/22 02:16:26;;;;;;;6.25;5.60;;;18.50;99.90;;;;;;5052537;28;20209;-74
2022/07/22 02:18:52;;;;;;;7.63;5.90;;;18.40;99.90;;;;;;5051606;28;20565;-74
2022/07/22 02:21:18;;;;;;;7.55;6.07;;;18.50;99.90;;;;;;5052257;28;20292;-74
2022/07/22 02:23:43;;;;;;;9.82;6.07;;;18.40;99.90;;;;;;5052596;28;20302;-74
2022/07/22 02:26:09;;;;;;;7.00;5.95;;;18.50;99.90;;;;;;5052404;28;20676;-74
2022/07/22 02:28:35;;;;;;;6.82;5.43;;;18.50;99.90;;;;;;5052272;28;20224;-75
2022/07/22 02:31:00;;;;;;;6.85;5.60;;;18.40;99.90;;;;;;5052079;28;20260;-74
2022/07/22 02:33:26;;;;;;;8.38;6.05;;;18.40;99.90;;;;;;5052731;28;20173;-75
2022/07/22 02:35:52;;;;;;;9.27;6.03;;;18.30;99.90;;;;;;5052302;28;20192;-74
2022/07/22 02:38:18;;;;;;;8.60;5.53;;;18.30;99.90;;;;;;5052723;28;20177;-75
2022/07/22 02:40:43;;;;;;;8.50;6.55;;;18.30;99.90;;;;;;5052066;28;20581;-74
2022/07/22 02:43:09;;;;;;;7.15;5.78;;;18.30;99.90;;;;;;5052228;28;20177;-75
2022/07/22 02:45:34;;;;;;;7.47;5.63;;;18.30;99.90;;;;;;5051606;28;20640;-75
2022/07/22 02:48:00;;;;;;;8.40;6.25;;;18.30;99.90;;;;;;5051821;28;20185;-74
2022/07/22 02:50:26;;;;;;;8.68;6.32;;;18.30;99.90;;;;;;5051604;28;20190;-75
2022/07/22 02:52:52;;;;;;;8.60;6.15;;;18.20;99.90;;;;;;5044441;28;20552;-74
2022/07/22 02:55:18;;;;;;;7.82;6.28;;;18.30;99.90;;;;;;5052112;28;20338;-74
2022/07/22 02:57:45;;;;;;;6.95;5.88;;;18.20;99.90;;;;;;5051927;28;20193;-74
2022/07/22 03:00:12;;;;;;;7.07;5.82;;;18.20;99.90;;;;;;5051808;28;20215;-74
2022/07/22 03:02:38;;;;;;;9.43;6.47;;;18.20;99.90;;;;;;5052094;28;20185;-74
2022/07/22 03:05:05;;;;;;;8.70;5.82;;;18.20;99.90;;;;;;5051738;28;20173;-73
2022/07/22 03:07:30;;;;;;;8.55;6.10;;;18.20;99.90;;;;;;5051909;28;20182;-75
2022/07/22 03:09:56;;;;;;;8.77;6.38;;;18.20;99.90;;;;;;5048987;28;20334;-75
2022/07/22 03:12:22;;;;;;;6.93;6.22;;;18.10;99.90;;;;;;5050955;28;20243;-75
2022/07/22 03:14:47;;;;;;;7.65;6.13;;;18.10;99.90;;;;;;5051364;28;20516;-75
2022/07/22 03:17:13;;;;;;;8.45;6.32;;;18.10;99.90;;;;;;5051577;28;20209;-74
2022/07/22 03:19:38;;;;;;;7.55;6.00;;;18.10;99.90;;;;;;5030166;28;20184;-74
2022/07/22 03:22:04;;;;;;;11.73;6.47;;;18.10;99.90;;;;;;5051115;28;20264;-73
2022/07/22 03:24:29;;;;;;;7.35;6.53;;;18.00;99.90;;;;;;5051181;28;20513;-75
2022/07/22 03:26:55;;;;;;;8.00;6.18;;;17.90;99.90;;;;;;5050982;28;20856;-75
2022/07/22 03:29:20;;;;;;;7.57;6.18;;;17.90;99.90;;;;;;5049531;28;20255;-76
2022/07/22 03:31:46;;;;;;;8.10;6.07;;;17.90;99.90;;;;;;5051066;28;20182;-75
2022/07/22 03:34:11;;;;;;;24.10;11.35;;;17.90;99.90;;;;;;5051402;28;20177;-75
2022/07/22 03:36:37;;;;;;;15.38;9.00;;;17.90;99.90;;;;;;5050419;28;20504;-75
2022/07/22 03:39:03;;;;;;;9.88;7.22;;;17.90;99.90;;;;;;5050587;28;20193;-74
2022/07/22 03:41:29;;;;;;;7.07;6.35;;;17.80;99.90;;;;;;5049302;28;20709;-75
2022/07/22 03:43:54;;;;;;;8.40;6.03;;;17.80;99.90;;;;;;5049684;28;20256;-68
2022/07/22 03:46:20;;;;;;;11.27;6.30;;;17.80;99.90;;;;;;5049530;28;20177;-75
2022/07/22 03:48:45;;;;;;;8.45;6.28;;;17.80;99.90;;;;;;5049828;28;20219;-75
2022/07/22 03:51:11;;;;;;;10.60;7.72;;;17.80;99.90;;;;;;5050712;28;20188;-76
2022/07/22 03:53:36;;;;;;;7.80;6.40;;;17.80;99.90;;;;;;5050769;28;20177;-75
2022/07/22 03:56:02;;;;;;;9.50;6.60;;;17.80;99.90;;;;;;5050753;28;20704;-70
2022/07/22 03:58:28;;;;;;;7.45;6.53;;;17.70;99.90;;;;;;5051667;28;20541;-70
2022/07/22 04:00:54;;;;;;;8.75;6.00;;;17.70;99.90;;;;;;5054829;28;20184;-69
2022/07/22 04:03:21;;;;;;;8.18;6.32;;;17.80;99.90;;;;;;5054956;28;20188;-68
2022/07/22 04:05:46;;;;;;;10.10;7.60;;;17.80;99.90;;;;;;5055197;28;20180;-69
2022/07/22 04:08:13;;;;;;;11.10;7.07;;;17.80;99.90;;;;;;5055011;28;20461;-71
2022/07/22 04:10:38;;;;;;;7.80;6.70;;;17.70;99.90;;;;;;5053947;28;20236;-72
2022/07/22 04:13:04;;;;;;;9.98;5.97;;;17.70;99.90;;;;;;5053886;28;20170;-71
2022/07/22 04:15:30;;;;;;;8.70;6.05;;;17.80;99.90;;;;;;5054946;28;20603;-70
2022/07/22 04:17:55;;;;;;;9.32;6.30;;;17.80;99.90;;;;;;5054949;28;20203;-71
2022/07/22 04:20:21;;;;;;;8.40;6.68;;;17.80;99.90;;;;;;5053034;28;20687;-73
2022/07/22 04:22:47;;;;;;;8.85;6.50;;;17.80;99.90;;;;;;5053909;28;20307;-75
2022/07/22 04:25:12;;;;;;;9.93;6.47;;;17.90;99.90;;;;;;5054934;28;20181;-77
2022/07/22 04:27:38;;;;;;;10.43;6.57;;;17.90;99.90;;;;;;5055076;28;20177;-72
2022/07/22 04:30:04;;;;;;;10.32;6.13;;;18.00;99.90;;;;;;5054177;28;20220;-72
2022/07/22 04:32:30;;;;;;;12.40;6.65;;;18.10;99.90;;;;;;5054395;28;20238;-75
2022/07/22 04:34:55;;;;;;;8.63;6.80;;;18.10;99.90;;;;;;5053955;28;20177;-73
2022/07/22 04:37:21;;;;;;;9.45;6.28;;;18.20;99.90;;;;;;5053912;28;20177;-73
2022/07/22 04:39:46;;;;;;;8.50;6.53;;;18.30;99.90;;;;;;5053307;28;20173;-69
2022/07/22 04:42:12;;;;;;;9.43;6.53;;;18.40;99.90;;;;;;5053932;28;20189;-76
2022/07/22 04:44:37;;;;;;;8.95;6.93;;;18.60;99.90;;;;;;5054643;28;20173;-74
2022/07/22 04:47:03;;;;;;;8.50;6.47;;;18.80;99.90;;;;;;5054021;28;20192;-71
2022/07/22 04:49:29;;;;;;;10.02;6.38;;;19.10;99.90;;;;;;5053953;28;20225;-71
2022/07/22 04:51:54;;;;;;;8.80;6.43;;;19.40;99.90;;;;;;5053255;28;20288;-71
2022/07/22 04:54:20;;;;;;;9.48;6.22;;;19.70;99.90;;;;;;5053937;28;20951;-71
2022/07/22 04:56:45;;;;;;;9.65;6.57;;;20.00;99.90;;;;;;5054358;28;20633;-71
2022/07/22 04:59:11;;;;;;;8.63;6.07;;;20.30;99.90;;;;;;5054222;28;20174;-71
2022/07/22 05:01:36;;;;;;;8.65;6.40;;;20.70;99.90;;;;;;5054491;28;20581;-71
2022/07/22 05:04:02;;;;;;;7.20;6.22;;;21.00;99.90;;;;;;5054327;28;20235;-70
2022/07/22 05:06:28;;;;;;;11.40;6.28;;;21.40;99.90;;;;;;5054360;28;20181;-70
2022/07/22 05:08:53;;;;;;;9.60;6.90;;;21.70;99.90;;;;;;5054241;28;20201;-71
2022/07/22 05:11:19;;;;;;;9.25;6.50;;;22.10;99.90;;;;;;5053210;28;20235;-71
2022/07/22 05:13:44;;;;;;;7.88;6.43;;;22.50;99.90;;;;;;5054537;28;20201;-71
2022/07/22 05:16:10;;;;;;;12.40;6.72;;;22.80;99.90;;;;;;5054095;28;20177;-71
2022/07/22 05:18:35;;;;;;;13.30;6.95;;;23.20;99.90;;;;;;5054330;28;20189;-71
2022/07/22 05:21:02;;;;;;;10.88;6.57;;;23.50;99.90;;;;;;5054174;28;20204;-70
2022/07/22 05:23:28;;;;;;;8.07;5.70;;;23.90;99.90;;;;;;5054139;28;20661;-72
2022/07/22 05:25:53;;;;;;;9.95;7.05;;;24.30;99.90;;;;;;5054123;28;20242;-72
2022/07/22 05:28:19;;;;;;;8.32;6.70;;;24.70;99.90;;;;;;5053905;28;20213;-71
2022/07/22 05:30:45;;;;;;;9.38;6.43;;;25.10;99.90;;;;;;5054170;28;20185;-71
2022/07/22 05:33:10;;;;;;;8.90;6.03;;;25.50;99.80;;;;;;5053852;28;20316;-71
2022/07/22 05:35:36;;;;;;;8.77;6.68;;;25.80;99.00;;;;;;5054060;28;20785;-71
2022/07/22 05:38:03;;;;;;;7.20;6.32;;;26.10;98.30;;;;;;5053988;28;20178;-70
2022/07/22 05:40:28;;;;;;;9.48;5.93;;;26.40;97.70;;;;;;5053771;28;20264;-71
2022/07/22 05:42:54;;;;;;;10.68;6.38;;;26.60;97.00;;;;;;5053843;28;20261;-71
2022/07/22 05:45:20;;;;;;;9.15;6.90;;;26.80;96.40;;;;;;5053738;28;20239;-71
2022/07/22 05:47:45;;;;;;;8.18;6.55;;;27.00;95.90;;;;;;5053789;28;20315;-71
2022/07/22 05:50:11;;;;;;;11.80;6.78;;;27.20;95.70;;;;;;5053414;28;20217;-71
2022/07/22 05:52:38;;;;;;;11.27;6.72;;;27.40;94.70;;;;;;5053611;28;20181;-71
2022/07/22 05:55:04;;;;;;;9.38;6.63;;;27.50;94.30;;;;;;5053750;28;20307;-71
2022/07/22 05:57:30;;;;;;;8.18;6.40;;;27.60;93.70;;;;;;5053415;28;20228;-71
2022/07/22 05:59:55;;;;;;;8.95;6.20;;;27.60;93.20;;;;;;5053404;28;20173;-71
2022/07/22 06:02:21;;;;;;;11.25;6.20;;;27.70;92.90;;;;;;5053431;28;20668;-71
2022/07/22 06:04:46;;;;;;;8.10;6.43;;;27.90;92.60;;;;;;5053422;28;20170;-72
2022/07/22 06:07:12;;;;;;;8.25;6.07;;;28.10;92.20;;;;;;5053196;28;20177;-71
2022/07/22 06:09:38;;;;;;;7.00;6.28;;;28.50;91.50;;;;;;5053300;28;20217;-72
2022/07/22 06:12:03;;;;;;;6.95;6.18;;;28.90;90.80;;;;;;5053231;28;20219;-71
2022/07/22 06:14:29;;;;;;;12.80;6.30;;;29.40;89.60;;;;;;5053035;28;20185;-72
2022/07/22 06:16:54;;;;;;;10.45;7.03;;;29.80;87.80;;;;;;5053253;28;20173;-71
2022/07/22 06:19:20;;;;;;;8.52;6.40;;;30.30;85.10;;;;;;5053073;28;20644;-71
2022/07/22 06:21:45;;;;;;;6.35;5.60;;;30.30;83.00;;;;;;5052651;28;20221;-72
2022/07/22 06:24:11;;;;;;;7.50;5.47;;;30.40;81.30;;;;;;5052895;28;20580;-72
2022/07/22 06:26:37;;;;;;;7.85;5.93;;;30.40;80.10;;;;;;5051876;28;20173;-72
2022/07/22 06:29:03;;;;;;;7.45;5.82;;;30.50;79.70;;;;;;5052671;28;20738;-71
2022/07/22 06:31:28;;;;;;;6.70;5.45;;;30.60;78.80;;;;;;5053047;28;20311;-72
2022/07/22 06:33:53;;;;;;;6.78;5.40;;;30.50;78.40;;;;;;5052899;28;20227;-72
2022/07/22 06:36:19;;;;;;;8.48;5.68;;;30.60;78.20;;;;;;5052921;28;20251;-73
2022/07/22 06:38:45;;;;;;;7.70;4.95;;;30.80;77.60;;;;;;5052921;28;20264;-72
2022/07/22 06:41:10;;;;;;;9.35;5.93;;;31.00;76.80;;;;;;5052679;28;20676;-72
2022/07/22 06:43:36;;;;;;;8.07;4.82;;;31.40;75.10;;;;;;5052550;28;20535;-73
2022/07/22 06:46:01;;;;;;;5.13;4.63;;;31.40;73.80;;;;;;5052703;28;20177;-71
2022/07/22 06:48:27;;;;;;;4.78;4.30;;;31.50;73.70;;;;;;5052545;28;20324;-72
2022/07/22 06:50:53;;;;;;;5.95;4.38;;;31.80;72.20;;;;;;5052520;28;20708;-73
2022/07/22 06:53:18;;;;;;;5.25;4.75;;;32.00;70.20;;;;;;5052381;28;20192;-72
2022/07/22 06:55:44;;;;;;;7.15;4.43;;;32.00;69.80;;;;;;5052596;28;20177;-73
2022/07/22 06:58:09;;;;;;;7.28;4.90;;;32.10;69.30;;;;;;5052343;28;20213;-72
2022/07/22 07:00:35;;;;;;;5.05;4.25;;;32.30;68.90;;;;;;5052239;28;20235;-72
2022/07/22 07:03:01;;;;;;;5.13;4.50;;;32.70;68.10;;;;;;5052468;28;20252;-72
2022/07/22 07:05:28;;;;;;;7.20;4.82;;;33.30;66.60;;;;;;5052257;28;20177;-72
2022/07/22 07:07:54;;;;;;;8.15;4.70;;;33.50;64.20;;;;;;5052198;28;20184;-72
2022/07/22 07:10:20;;;;;;;5.68;4.50;;;33.60;63.70;;;;;;5052170;28;20216;-72
2022/07/22 07:12:45;;;;;;;5.68;4.53;;;33.70;63.30;;;;;;5052183;28;20176;-72
2022/07/22 07:15:11;;;;;;;5.25;4.75;;;33.70;61.90;;;;;;5052050;28;20187;-72
2022/07/22 07:17:37;;;;;;;6.85;4.55;;;33.80;62.10;;;;;;5051958;28;20177;-72
2022/07/22 07:20:04;;;;;;;5.00;4.50;;;33.80;62.00;;;;;;5051999;28;20554;-72
2022/07/22 07:22:30;;;;;;;5.18;4.65;;;34.00;60.80;;;;;;5051810;28;20307;-73
2022/07/22 07:24:55;;;;;;;5.82;4.78;;;34.20;61.20;;;;;;5051974;28;20250;-73
2022/07/22 07:27:21;;;;;;;5.90;4.90;;;34.50;60.20;;;;;;5051972;28;20299;-73
2022/07/22 07:29:46;;;;;;;4.93;4.47;;;34.50;59.10;;;;;;5051858;28;20220;-72
2022/07/22 07:32:12;;;;;;;5.55;4.45;;;34.60;59.20;;;;;;5051744;28;20180;-72
2022/07/22 07:34:38;;;;;;;6.65;4.75;;;34.60;58.90;;;;;;5051356;28;20671;-72
2022/07/22 07:37:04;;;;;;;5.00;4.50;;;34.70;57.90;;;;;;5051883;28;20195;-73
2022/07/22 07:39:29;;;;;;;5.45;4.35;;;34.80;58.10;;;;;;5051776;28;20203;-73
2022/07/22 07:41:55;;;;;;;7.50;4.45;;;35.00;58.30;;;;;;5051681;28;20188;-72
2022/07/22 07:44:20;;;;;;;7.28;4.35;;;35.00;57.10;;;;;;5051664;28;20181;-73
2022/07/22 07:46:46;;;;;;;4.97;4.50;;;34.90;57.70;;;;;;5051617;28;20169;-73
2022/07/22 07:49:11;;;;;;;5.72;4.70;;;34.90;56.90;;;;;;5051529;28;20216;-73
2022/07/22 07:51:37;;;;;;;5.88;4.43;;;35.00;56.80;;;;;;5051521;28;20263;-73
2022/07/22 07:54:03;;;;;;;5.50;4.38;;;35.20;56.30;;;;;;5051782;28;20173;-73
2022/07/22 07:56:28;;;;;;;5.45;4.45;;;35.30;56.50;;;;;;5051846;28;20264;-73
2022/07/22 07:58:54;;;;;;;5.07;4.38;;;35.30;55.00;;;;;;5052831;28;20181;-73
2022/07/22 08:01:20;;;;;;;5.28;3.97;;;35.20;55.60;;;;;;5051490;28;20171;-74
2022/07/22 08:03:45;;;;;;;5.80;4.50;;;35.20;55.10;;;;;;5051635;28;20204;-73
2022/07/22 08:06:11;;;;;;;5.13;4.45;;;34.90;55.10;;;;;;5051590;28;20199;-73
2022/07/22 08:08:36;;;;;;;5.25;4.30;;;34.90;55.30;;;;;;5051458;28;20204;-73
2022/07/22 08:11:02;;;;;;;6.65;4.28;;;34.90;55.50;;;;;;5051537;28;20205;-72
2022/07/22 08:13:28;;;;;;;5.35;4.82;;;34.80;54.80;;;;;;5051450;28;20177;-73
2022/07/22 08:15:54;;;;;;;6.82;4.68;;;34.50;54.60;;;;;;5051430;28;20180;-74
2022/07/22 08:18:19;;;;;;;5.60;4.25;;;34.30;55.30;;;;;;5051422;28;20169;-72
2022/07/22 08:20:45;;;;;;;5.82;4.35;;;34.10;56.00;;;;;;5051506;28;20267;-73
2022/07/22 08:23:11;;;;;;;6.90;4.78;;;33.70;56.20;;;;;;5051339;28;20224;-73
2022/07/22 08:25:36;;;;;;;6.20;4.72;;;33.40;57.90;;;;;;5051405;28;20177;-74
2022/07/22 08:28:02;;;;;;;7.07;4.32;;;33.10;57.70;;;;;;5051428;28;20260;-72
2022/07/22 08:30:28;;;;;;;5.57;4.45;;;33.20;57.50;;;;;;5051444;28;20229;-73
2022/07/22 08:32:54;;;;;;;6.25;5.03;;;33.10;58.00;;;;;;5051261;28;20177;-73
2022/07/22 08:35:20;;;;;;;6.35;4.88;;;33.00;58.20;;;;;;5051275;28;20582;-73
2022/07/22 08:37:47;;;;;;;7.22;4.90;;;32.90;58.20;;;;;;5051477;28;20227;-73
2022/07/22 08:40:14;;;;;;;5.57;4.63;;;33.10;58.70;;;;;;5051276;28;20576;-73
2022/07/22 08:42:40;;;;;;;5.40;4.90;;;33.40;59.20;;;;;;5051427;28;20184;-72
2022/07/22 08:45:07;;;;;;;6.03;4.82;;;33.70;57.50;;;;;;5053397;28;20199;-72
2022/07/22 08:47:33;;;;;;;5.28;4.78;;;33.90;57.20;;;;;;5055281;28;20185;-72
2022/07/22 08:49:59;;;;;;;5.15;4.43;;;34.00;57.50;;;;;;5054918;28;20219;-72
2022/07/22 08:52:25;;;;;;;6.28;4.43;;;34.20;57.50;;;;;;5054844;28;20865;-72
2022/07/22 08:54:50;;;;;;;5.40;4.80;;;34.50;56.20;;;;;;5055081;28;20184;-73
2022/07/22 08:57:17;;;;;;;8.20;4.65;;;34.30;55.90;;;;;;5054668;28;20227;-72
2022/07/22 08:59:56;;;;;;;5.18;4.28;;;34.20;56.90;;;;;;5054715;28;20174;-72
2022/07/22 09:02:23;;;;;;;4.90;4.40;;;34.30;57.00;;;;;;5054759;28;20169;-72
2022/07/22 09:04:58;;;;;;;5.65;4.70;;;34.50;56.80;;;;;;5054696;28;20180;-72
2022/07/22 09:07:28;;;;;;;5.60;4.60;;;34.60;56.00;;;;;;5054610;28;20190;-71
2022/07/22 09:09:54;;;;;;;5.80;4.50;;;34.60;56.00;;;;;;5054576;28;20212;-72
2022/07/22 09:12:22;;;;;;;7.07;4.65;;;34.70;56.10;;;;;;5054703;28;20184;-71
2022/07/22 09:14:50;;;;;;;6.28;4.30;;;34.80;56.30;;;;;;5054679;28;20219;-72
2022/07/22 09:17:31;;;;;;;4.97;4.25;;;35.10;56.70;;;;;;5054415;28;20186;-72
2022/07/22 09:19:59;;;;;;;5.18;4.47;;;35.20;55.70;;;;;;5054376;28;20181;-72
2022/07/22 09:22:43;;;;;;;6.35;4.80;;;35.10;54.80;;;;;;5054202;28;20297;-72
2022/07/22 09:25:31;;;;;;;7.63;4.63;;;35.10;55.50;;;;;;5054793;28;20165;-71
2022/07/22 09:28:22;;;;;;;7.40;4.93;;;34.90;54.90;;;;;;5054401;28;20177;-72
2022/07/22 09:30:53;;;;;;;6.30;4.60;;;34.70;55.30;;;;;;5054368;28;20267;-72
2022/07/22 09:33:19;;;;;;;5.85;4.55;;;34.60;57.30;;;;;;5054081;28;20215;-72
2022/07/22 09:35:46;;;;;;;6.75;4.47;;;34.70;54.40;;;;;;5054107;28;20540;-71
2022/07/22 09:38:13;;;;;;;6.88;4.70;;;34.60;55.70;;;;;;5053906;28;20184;-71
2022/07/22 09:40:44;;;;;;;6.40;4.78;;;34.20;55.50;;;;;;5054038;28;20181;-72
2022/07/22 09:43:12;;;;;;;4.80;4.18;;;34.10;55.80;;;;;;5053875;28;20215;-72
2022/07/22 09:45:58;;;;;;;6.07;5.10;;;34.10;55.90;;;;;;5053987;28;20243;-71
2022/07/22 09:48:25;;;;;;;5.72;4.68;;;34.30;56.50;;;;;;5053709;28;20691;-72
2022/07/22 09:50:52;;;;;;;4.70;4.30;;;34.50;57.00;;;;;;5053780;28;20259;-72
2022/07/22 09:53:20;;;;;;;5.68;4.30;;;34.50;55.40;;;;;;5053651;28;20185;-71
2022/07/22 09:55:46;;;;;;;5.72;4.18;;;34.60;56.90;;;;;;5053090;28;20177;-71
2022/07/22 09:58:12;;;;;;;5.22;4.70;;;34.90;55.50;;;;;;5053567;28;20177;-71
2022/07/22 10:00:39;;;;;;;6.10;4.68;;;35.20;55.10;;;;;;5053503;28;20655;-71
2022/07/22 10:03:07;;;;;;;5.10;4.57;;;35.50;54.80;;;;;;5053488;28;20256;-71
2022/07/22 10:05:36;;;;;;;7.25;4.78;;;35.20;52.80;;;;;;5053528;28;20320;-71
2022/07/22 10:08:03;;;;;;;7.40;4.38;;;34.90;53.20;;;;;;5052261;28;20572;-71
2022/07/22 10:10:30;;;;;;;4.97;4.30;;;34.80;54.10;;;;;;5053567;28;20212;-71
2022/07/22 10:12:58;;;;;;;4.78;4.20;;;34.80;54.40;;;;;;5053352;28;20272;-71
2022/07/22 10:15:26;;;;;;;5.05;4.35;;;34.70;54.60;;;;;;5053234;28;20178;-71
2022/07/22 10:17:58;;;;;;;5.75;4.38;;;34.50;54.10;;;;;;5053433;28;20173;-71
2022/07/22 10:20:27;;;;;;;5.85;4.32;;;34.40;54.40;;;;;;5053361;28;20181;-71
2022/07/22 10:23:13;;;;;;;7.00;4.70;;;34.20;54.80;;;;;;5052969;28;20243;-71
2022/07/22 10:25:53;;;;;;;5.53;4.43;;;34.00;54.50;;;;;;5053102;28;20176;-71
2022/07/22 10:28:23;;;;;;;5.38;4.47;;;33.90;56.00;;;;;;5053042;28;20268;-71
2022/07/22 10:30:49;;;;;;;7.28;5.18;;;34.20;56.10;;;;;;5053021;28;20200;-71
2022/07/22 10:33:17;;;;;;;7.35;4.70;;;34.60;55.70;;;;;;5052823;28;20820;-70
2022/07/22 10:35:42;;;;;;;6.50;4.63;;;34.70;54.60;;;;;;5052925;28;20220;-71
2022/07/22 10:38:09;;;;;;;5.88;4.60;;;34.80;54.50;;;;;;5052855;28;20639;-71
2022/07/22 10:40:50;;;;;;;7.07;4.28;;;34.90;55.80;;;;;;5052778;28;20208;-71
2022/07/22 10:43:24;;;;;;;5.15;4.65;;;34.90;54.00;;;;;;5052578;28;20512;-71
2022/07/22 10:45:57;;;;;;;7.82;4.72;;;34.90;53.80;;;;;;5052970;28;20173;-71
2022/07/22 10:48:42;;;;;;;7.03;4.38;;;34.90;53.50;;;;;;5052498;28;20184;-71
2022/07/22 10:51:10;;;;;;;5.50;4.57;;;34.60;54.10;;;;;;5052494;28;20189;-71
2022/07/22 10:53:40;;;;;;;6.30;4.32;;;34.50;54.40;;;;;;5052444;28;20536;-70
2022/07/22 10:56:05;;;;;;;5.65;4.75;;;34.30;54.50;;;;;;5052437;28;20697;-71
2022/07/22 10:58:34;;;;;;;5.75;4.47;;;34.20;55.10;;;;;;5052537;28;20173;-71
2022/07/22 11:01:06;;;;;;;6.05;4.30;;;34.30;54.90;;;;;;5052524;28;20242;-71
2022/07/22 11:03:33;;;;;;;5.03;4.53;;;34.50;53.70;;;;;;5052403;28;20189;-71
2022/07/22 11:06:23;;;;;;;4.90;4.40;;;34.60;54.50;;;;;;5052312;28;20230;-70
2022/07/22 11:08:52;;;;;;;5.88;4.47;;;34.70;53.90;;;;;;5052291;28;20289;-71
2022/07/22 11:11:18;;;;;;;6.65;4.80;;;34.80;54.20;;;;;;5052253;28;20175;-71
2022/07/22 11:13:45;;;;;;;4.75;4.18;;;35.00;53.30;;;;;;5052349;28;20222;-71
2022/07/22 11:16:23;;;;;;;5.30;4.22;;;35.00;53.70;;;;;;5052261;28;20199;-70
2022/07/22 11:19:02;;;;;;;5.25;4.30;;;35.20;52.30;;;;;;5052296;28;20180;-70
2022/07/22 11:21:32;;;;;;;5.00;4.43;;;35.20;51.90;;;;;;5051984;28;20208;-70
2022/07/22 11:24:01;;;;;;;4.47;4.07;;;35.30;51.90;;;;;;5052228;28;20184;-71
2022/07/22 11:26:44;;;;;;;4.80;4.30;;;35.50;51.80;;;;;;5052043;28;20200;-70
2022/07/22 11:29:14;;;;;;;5.30;4.03;;;35.30;51.90;;;;;;5051956;28;20204;-71
2022/07/22 11:31:40;;;;;;;5.43;4.68;;;35.00;52.00;;;;;;5052053;28;20177;-71
2022/07/22 11:34:13;;;;;;;7.95;4.75;;;34.90;52.40;;;;;;5051964;28;20181;-70
2022/07/22 11:36:41;;;;;;;8.85;4.72;;;34.70;52.60;;;;;;5052019;28;20177;-70
2022/07/22 11:39:08;;;;;;;6.20;3.90;;;34.50;52.60;;;;;;5051862;28;20268;-70
2022/07/22 11:41:35;;;;;;;5.18;4.63;;;34.50;52.60;;;;;;5051749;28;20648;-70
2022/07/22 11:44:01;;;;;;;4.97;4.03;;;34.50;52.80;;;;;;5051792;28;20652;-70
2022/07/22 11:46:27;;;;;;;5.47;4.18;;;34.60;52.70;;;;;;5051876;28;20192;-70
2022/07/22 11:48:56;;;;;;;4.35;3.90;;;34.70;52.50;;;;;;5051631;28;20212;-70
2022/07/22 11:51:29;;;;;;;5.55;4.30;;;34.70;52.30;;;;;;5051701;28;20202;-70
2022/07/22 11:53:54;;;;;;;5.70;4.57;;;34.80;52.00;;;;;;5031782;28;20178;-70
2022/07/22 11:56:20;;;;;;;8.38;5.15;;;34.90;51.80;;;;;;5031758;28;20177;-70
2022/07/22 11:58:47;;;;;;;6.18;4.63;;;34.90;51.20;;;;;;5034423;28;20209;-70
2022/07/22 12:01:16;;;;;;;5.22;4.10;;;34.80;51.70;;;;;;5051384;28;20169;-70
2022/07/22 12:03:46;;;;;;;5.57;4.50;;;34.60;52.10;;;;;;5051660;28;20173;-70
2022/07/22 12:06:14;;;;;;;5.47;4.90;;;34.40;52.50;;;;;;5051789;28;20196;-70
2022/07/22 12:08:44;;;;;;;5.85;4.25;;;34.30;53.10;;;;;;5051617;28;20214;-70
2022/07/22 12:11:13;;;;;;;5.07;4.07;;;34.30;51.70;;;;;;5051661;28;20172;-70
2022/07/22 12:13:47;;;;;;;4.32;3.92;;;34.40;53.40;;;;;;5051529;28;20525;-70
2022/07/22 12:16:24;;;;;;;4.90;3.95;;;34.50;51.60;;;;;;5051576;28;20185;-70
2022/07/22 12:18:54;;;;;;;4.93;4.10;;;34.60;51.90;;;;;;5051631;28;20263;-70
2022/07/22 12:21:21;;;;;;;4.90;3.80;;;34.50;51.20;;;;;;5055251;28;20266;-70
2022/07/22 12:23:55;;;;;;;5.75;4.32;;;34.40;51.30;;;;;;5055587;28;20173;-70
2022/07/22 12:26:40;;;;;;;6.28;4.25;;;34.40;51.90;;;;;;5055278;28;20581;-70
2022/07/22 12:29:27;;;;;;;6.38;4.50;;;34.50;52.30;;;;;;5055276;28;20274;-70
2022/07/22 12:32:00;;;;;;;5.72;4.25;;;34.60;51.30;;;;;;5054583;28;20180;-70
2022/07/22 12:34:39;;;;;;;4.43;4.03;;;34.80;51.70;;;;;;5054886;28;20191;-70
2022/07/22 12:37:33;;;;;;;5.07;4.53;;;34.80;50.00;;;;;;5054522;28;20173;-69
2022/07/22 12:40:21;;;;;;;4.65;4.03;;;34.70;50.90;;;;;;5060913;28;20319;-70
2022/07/22 12:43:08;;;;;;;4.55;4.15;;;34.50;50.40;;;;;;5055121;28;20570;-73
2022/07/22 12:45:36;;;;;;;5.80;4.35;;;34.60;51.20;;;;;;5054825;28;20522;-72
2022/07/22 12:48:05;;;;;;;5.03;4.20;;;34.70;51.50;;;;;;5054981;28;20248;-74